sensor_id;sensor_type;location;lat;lon;timestamp;temperature;humidity
33271;DHT22;53180;51.344;6.152;2022-11-14T00:01:26;5.40;85.00
33271;DHT22;53180;51.344;6.152;2022-11-14T00:03:54;5.40;84.80
33271;DHT22;53180;51.344;6.152;2022-11-14T00:06:23;5.40;85.00
33271;DHT22;53180;51.344;6.152;2022-11-14T00:08:51;5.50;85.00
33271;DHT22;53180;51.344;6.152;2022-11-14T00:11:19;5.50;85.00
33271;DHT22;53180;51.344;6.152;2022-11-14T00:13:49;5.50;84.60
33271;DHT22;53180;51.344;6.152;2022-11-14T00:16:17;5.50;84.40
33271;DHT22;53180;51.344;6.152;2022-11-14T00:18:46;5.50;84.50
33271;DHT22;53180;51.344;6.152;2022-11-14T00:21:14;5.50;84.80
33271;DHT22;53180;51.344;6.152;2022-11-14T00:23:42;5.50;84.70
33271;DHT22;53180;51.344;6.152;2022-11-14T00:26:11;5.50;84.70
33271;DHT22;53180;51.344;6.152;2022-11-14T00:28:39;5.50;84.90
33271;DHT22;53180;51.344;6.152;2022-11-14T00:31:09;5.40;84.80
33271;DHT22;53180;51.344;6.152;2022-11-14T00:33:38;5.40;84.70
33271;DHT22;53180;51.344;6.152;2022-11-14T00:36:06;5.40;85.00
33271;DHT22;53180;51.344;6.152;2022-11-14T00:38:35;5.40;84.70
33271;DHT22;53180;51.344;6.152;2022-11-14T00:41:03;5.30;84.80
33271;DHT22;53180;51.344;6.152;2022-11-14T00:43:32;5.20;84.30
33271;DHT22;53180;51.344;6.152;2022-11-14T00:46:00;5.20;84.40
33271;DHT22;53180;51.344;6.152;2022-11-14T00:48:30;5.20;84.70
33271;DHT22;53180;51.344;6.152;2022-11-14T00:50:58;5.20;85.20
33271;DHT22;53180;51.344;6.152;2022-11-14T00:53:26;5.10;85.40
33271;DHT22;53180;51.344;6.152;2022-11-14T00:55:55;5.10;85.40
33271;DHT22;53180;51.344;6.152;2022-11-14T00:58:23;5.10;85.00
33271;DHT22;53180;51.344;6.152;2022-11-14T01:00:52;5.20;85.20
33271;DHT22;53180;51.344;6.152;2022-11-14T01:03:21;5.20;85.20
33271;DHT22;53180;51.344;6.152;2022-11-14T01:05:53;5.20;85.10
33271;DHT22;53180;51.344;6.152;2022-11-14T01:08:21;5.20;84.80
33271;DHT22;53180;51.344;6.152;2022-11-14T01:10:50;5.20;84.70
33271;DHT22;53180;51.344;6.152;2022-11-14T01:13:18;5.30;84.50
33271;DHT22;53180;51.344;6.152;2022-11-14T01:15:48;5.40;84.20
33271;DHT22;53180;51.344;6.152;2022-11-14T01:18:20;5.50;84.00
33271;DHT22;53180;51.344;6.152;2022-11-14T01:20:48;5.60;83.60
33271;DHT22;53180;51.344;6.152;2022-11-14T01:23:18;5.70;83.10
33271;DHT22;53180;51.344;6.152;2022-11-14T01:25:46;5.90;82.80
33271;DHT22;53180;51.344;6.152;2022-11-14T01:28:17;5.90;82.70
33271;DHT22;53180;51.344;6.152;2022-11-14T01:30:46;6.00;82.90
33271;DHT22;53180;51.344;6.152;2022-11-14T01:33:14;6.00;82.70
33271;DHT22;53180;51.344;6.152;2022-11-14T01:35:43;6.00;82.70
33271;DHT22;53180;51.344;6.152;2022-11-14T01:38:12;6.00;82.50
33271;DHT22;53180;51.344;6.152;2022-11-14T01:40:44;6.00;82.80
33271;DHT22;53180;51.344;6.152;2022-11-14T01:43:36;5.90;82.70
33271;DHT22;53180;51.344;6.152;2022-11-14T01:46:06;5.90;82.90
33271;DHT22;53180;51.344;6.152;2022-11-14T01:48:40;5.90;83.10
33271;DHT22;53180;51.344;6.152;2022-11-14T01:51:20;5.80;83.20
33271;DHT22;53180;51.344;6.152;2022-11-14T01:53:54;5.70;83.40
33271;DHT22;53180;51.344;6.152;2022-11-14T01:56:28;5.70;83.40
33271;DHT22;53180;51.344;6.152;2022-11-14T01:59:01;5.60;83.50
33271;DHT22;53180;51.344;6.152;2022-11-14T02:01:33;5.50;83.20
33271;DHT22;53180;51.344;6.152;2022-11-14T02:04:04;5.50;83.30
33271;DHT22;53180;51.344;6.152;2022-11-14T02:06:37;5.40;83.80
33271;DHT22;53180;51.344;6.152;2022-11-14T02:09:07;5.40;84.00
33271;DHT22;53180;51.344;6.152;2022-11-14T02:11:39;5.40;84.10
33271;DHT22;53180;51.344;6.152;2022-11-14T02:14:10;5.30;84.20
33271;DHT22;53180;51.344;6.152;2022-11-14T02:16:39;5.30;84.60
33271;DHT22;53180;51.344;6.152;2022-11-14T02:19:39;5.30;84.70
33271;DHT22;53180;51.344;6.152;2022-11-14T02:22:10;5.30;84.90
33271;DHT22;53180;51.344;6.152;2022-11-14T02:24:38;5.40;84.80
33271;DHT22;53180;51.344;6.152;2022-11-14T02:27:07;5.40;84.70
33271;DHT22;53180;51.344;6.152;2022-11-14T02:29:37;5.30;84.90
33271;DHT22;53180;51.344;6.152;2022-11-14T02:32:06;5.30;85.20
33271;DHT22;53180;51.344;6.152;2022-11-14T02:34:37;5.30;85.40
33271;DHT22;53180;51.344;6.152;2022-11-14T02:37:05;5.30;85.60
33271;DHT22;53180;51.344;6.152;2022-11-14T02:39:35;5.30;85.70
33271;DHT22;53180;51.344;6.152;2022-11-14T02:42:04;5.30;85.90
33271;DHT22;53180;51.344;6.152;2022-11-14T02:44:33;5.30;86.00
33271;DHT22;53180;51.344;6.152;2022-11-14T02:47:01;5.30;86.10
33271;DHT22;53180;51.344;6.152;2022-11-14T02:49:30;5.30;86.20
33271;DHT22;53180;51.344;6.152;2022-11-14T02:51:58;5.40;86.20
33271;DHT22;53180;51.344;6.152;2022-11-14T02:54:26;5.40;86.20
33271;DHT22;53180;51.344;6.152;2022-11-14T02:56:56;5.40;86.20
33271;DHT22;53180;51.344;6.152;2022-11-14T02:59:24;5.40;86.10
33271;DHT22;53180;51.344;6.152;2022-11-14T03:01:53;5.40;86.10
33271;DHT22;53180;51.344;6.152;2022-11-14T03:04:21;5.50;86.10
33271;DHT22;53180;51.344;6.152;2022-11-14T03:06:49;5.50;86.00
33271;DHT22;53180;51.344;6.152;2022-11-14T03:09:18;5.40;85.90
33271;DHT22;53180;51.344;6.152;2022-11-14T03:11:46;5.40;85.80
33271;DHT22;53180;51.344;6.152;2022-11-14T03:14:16;5.40;85.80
33271;DHT22;53180;51.344;6.152;2022-11-14T03:16:44;5.40;85.70
33271;DHT22;53180;51.344;6.152;2022-11-14T03:19:12;5.40;85.50
33271;DHT22;53180;51.344;6.152;2022-11-14T03:21:41;5.40;85.50
33271;DHT22;53180;51.344;6.152;2022-11-14T03:24:09;5.40;85.40
33271;DHT22;53180;51.344;6.152;2022-11-14T03:26:37;5.40;85.20
33271;DHT22;53180;51.344;6.152;2022-11-14T03:29:06;5.40;85.10
33271;DHT22;53180;51.344;6.152;2022-11-14T03:31:36;5.40;85.10
33271;DHT22;53180;51.344;6.152;2022-11-14T03:34:04;5.40;85.10
33271;DHT22;53180;51.344;6.152;2022-11-14T03:36:33;5.40;85.00
33271;DHT22;53180;51.344;6.152;2022-11-14T03:39:01;5.40;84.90
33271;DHT22;53180;51.344;6.152;2022-11-14T03:41:30;5.40;84.90
33271;DHT22;53180;51.344;6.152;2022-11-14T03:43:59;5.40;84.80
33271;DHT22;53180;51.344;6.152;2022-11-14T03:46:27;5.40;84.60
33271;DHT22;53180;51.344;6.152;2022-11-14T03:48:57;5.40;84.40
33271;DHT22;53180;51.344;6.152;2022-11-14T03:51:25;5.40;84.30
33271;DHT22;53180;51.344;6.152;2022-11-14T03:53:53;5.40;84.20
33271;DHT22;53180;51.344;6.152;2022-11-14T03:56:22;5.40;84.10
33271;DHT22;53180;51.344;6.152;2022-11-14T03:58:50;5.40;84.10
33271;DHT22;53180;51.344;6.152;2022-11-14T04:01:18;5.40;84.00
33271;DHT22;53180;51.344;6.152;2022-11-14T04:03:47;5.40;84.00
33271;DHT22;53180;51.344;6.152;2022-11-14T04:06:16;5.40;83.90
33271;DHT22;53180;51.344;6.152;2022-11-14T04:08:45;5.40;83.90
33271;DHT22;53180;51.344;6.152;2022-11-14T04:11:13;5.40;83.90
33271;DHT22;53180;51.344;6.152;2022-11-14T04:13:41;5.40;84.00
33271;DHT22;53180;51.344;6.152;2022-11-14T04:16:10;5.40;83.80
33271;DHT22;53180;51.344;6.152;2022-11-14T04:18:38;5.30;83.70
33271;DHT22;53180;51.344;6.152;2022-11-14T04:21:06;5.30;83.80
33271;DHT22;53180;51.344;6.152;2022-11-14T04:23:36;5.30;83.60
33271;DHT22;53180;51.344;6.152;2022-11-14T04:26:04;5.30;83.70
33271;DHT22;53180;51.344;6.152;2022-11-14T04:28:33;5.30;83.90
33271;DHT22;53180;51.344;6.152;2022-11-14T04:31:01;5.30;83.90
33271;DHT22;53180;51.344;6.152;2022-11-14T04:33:29;5.20;83.80
33271;DHT22;53180;51.344;6.152;2022-11-14T04:35:58;5.20;83.90
33271;DHT22;53180;51.344;6.152;2022-11-14T04:38:26;5.30;83.80
33271;DHT22;53180;51.344;6.152;2022-11-14T04:40:56;5.20;83.90
33271;DHT22;53180;51.344;6.152;2022-11-14T04:43:25;5.20;83.90
33271;DHT22;53180;51.344;6.152;2022-11-14T04:45:53;5.20;83.80
33271;DHT22;53180;51.344;6.152;2022-11-14T04:48:21;5.20;83.90
33271;DHT22;53180;51.344;6.152;2022-11-14T04:50:49;5.20;84.00
33271;DHT22;53180;51.344;6.152;2022-11-14T04:53:18;5.10;84.10
33271;DHT22;53180;51.344;6.152;2022-11-14T04:55:46;5.10;84.10
33271;DHT22;53180;51.344;6.152;2022-11-14T04:58:16;5.00;84.10
33271;DHT22;53180;51.344;6.152;2022-11-14T05:00:44;4.90;84.20
33271;DHT22;53180;51.344;6.152;2022-11-14T05:03:12;4.90;84.30
33271;DHT22;53180;51.344;6.152;2022-11-14T05:05:40;4.90;84.40
33271;DHT22;53180;51.344;6.152;2022-11-14T05:08:09;4.80;84.40
33271;DHT22;53180;51.344;6.152;2022-11-14T05:10:41;4.80;84.60
33271;DHT22;53180;51.344;6.152;2022-11-14T05:13:09;4.80;84.60
33271;DHT22;53180;51.344;6.152;2022-11-14T05:15:39;4.80;84.60
33271;DHT22;53180;51.344;6.152;2022-11-14T05:18:07;4.70;84.40
33271;DHT22;53180;51.344;6.152;2022-11-14T05:20:36;4.70;84.40
33271;DHT22;53180;51.344;6.152;2022-11-14T05:23:04;4.70;84.90
33271;DHT22;53180;51.344;6.152;2022-11-14T05:25:34;4.70;84.60
33271;DHT22;53180;51.344;6.152;2022-11-14T05:28:02;4.70;84.90
33271;DHT22;53180;51.344;6.152;2022-11-14T05:30:31;4.70;84.70
33271;DHT22;53180;51.344;6.152;2022-11-14T05:33:01;4.60;84.90
33271;DHT22;53180;51.344;6.152;2022-11-14T05:35:29;4.60;84.80
33271;DHT22;53180;51.344;6.152;2022-11-14T05:37:59;4.60;84.90
33271;DHT22;53180;51.344;6.152;2022-11-14T05:40:28;4.60;84.80
33271;DHT22;53180;51.344;6.152;2022-11-14T05:42:56;4.60;85.00
33271;DHT22;53180;51.344;6.152;2022-11-14T05:45:24;4.70;85.20
33271;DHT22;53180;51.344;6.152;2022-11-14T05:47:52;4.60;84.90
33271;DHT22;53180;51.344;6.152;2022-11-14T05:50:25;4.60;85.00
33271;DHT22;53180;51.344;6.152;2022-11-14T05:52:54;4.50;85.10
33271;DHT22;53180;51.344;6.152;2022-11-14T05:55:23;4.60;85.30
33271;DHT22;53180;51.344;6.152;2022-11-14T05:57:51;4.60;85.10
33271;DHT22;53180;51.344;6.152;2022-11-14T06:00:20;4.70;84.90
33271;DHT22;53180;51.344;6.152;2022-11-14T06:02:51;4.70;85.00
33271;DHT22;53180;51.344;6.152;2022-11-14T06:05:20;4.70;85.00
33271;DHT22;53180;51.344;6.152;2022-11-14T06:07:55;4.60;84.90
33271;DHT22;53180;51.344;6.152;2022-11-14T06:10:24;4.60;84.90
33271;DHT22;53180;51.344;6.152;2022-11-14T06:12:53;4.60;85.10
33271;DHT22;53180;51.344;6.152;2022-11-14T06:15:21;4.60;84.90
33271;DHT22;53180;51.344;6.152;2022-11-14T06:17:51;4.50;84.90
33271;DHT22;53180;51.344;6.152;2022-11-14T06:20:20;4.50;85.20
33271;DHT22;53180;51.344;6.152;2022-11-14T06:22:48;4.50;85.30
33271;DHT22;53180;51.344;6.152;2022-11-14T06:25:18;4.40;85.40
33271;DHT22;53180;51.344;6.152;2022-11-14T06:27:46;4.50;85.30
33271;DHT22;53180;51.344;6.152;2022-11-14T06:30:15;4.40;85.30
33271;DHT22;53180;51.344;6.152;2022-11-14T06:32:43;4.40;85.30
33271;DHT22;53180;51.344;6.152;2022-11-14T06:35:12;4.30;85.40
33271;DHT22;53180;51.344;6.152;2022-11-14T06:37:40;4.30;85.40
33271;DHT22;53180;51.344;6.152;2022-11-14T06:40:09;4.40;85.10
33271;DHT22;53180;51.344;6.152;2022-11-14T06:42:39;4.40;85.20
33271;DHT22;53180;51.344;6.152;2022-11-14T06:45:08;4.40;85.20
33271;DHT22;53180;51.344;6.152;2022-11-14T06:47:37;4.50;85.20
33271;DHT22;53180;51.344;6.152;2022-11-14T06:50:06;4.50;85.30
33271;DHT22;53180;51.344;6.152;2022-11-14T06:52:35;4.50;85.20
33271;DHT22;53180;51.344;6.152;2022-11-14T06:55:04;4.60;85.00
33271;DHT22;53180;51.344;6.152;2022-11-14T06:57:33;4.50;85.20
33271;DHT22;53180;51.344;6.152;2022-11-14T07:00:04;4.60;85.10
33271;DHT22;53180;51.344;6.152;2022-11-14T07:02:33;4.60;85.20
33271;DHT22;53180;51.344;6.152;2022-11-14T07:05:01;4.50;85.40
33271;DHT22;53180;51.344;6.152;2022-11-14T07:07:30;4.40;85.60
33271;DHT22;53180;51.344;6.152;2022-11-14T07:09:58;4.30;85.40
33271;DHT22;53180;51.344;6.152;2022-11-14T07:12:26;4.40;85.50
33271;DHT22;53180;51.344;6.152;2022-11-14T07:14:55;4.50;85.60
33271;DHT22;53180;51.344;6.152;2022-11-14T07:17:25;4.60;85.70
33271;DHT22;53180;51.344;6.152;2022-11-14T07:19:57;4.60;85.70
33271;DHT22;53180;51.344;6.152;2022-11-14T07:22:25;4.70;85.70
33271;DHT22;53180;51.344;6.152;2022-11-14T07:24:53;4.70;85.80
33271;DHT22;53180;51.344;6.152;2022-11-14T07:27:22;4.80;85.90
33271;DHT22;53180;51.344;6.152;2022-11-14T07:29:50;4.90;85.80
33271;DHT22;53180;51.344;6.152;2022-11-14T07:32:18;4.90;85.90
33271;DHT22;53180;51.344;6.152;2022-11-14T07:34:48;5.00;85.80
33271;DHT22;53180;51.344;6.152;2022-11-14T07:37:16;5.10;85.60
33271;DHT22;53180;51.344;6.152;2022-11-14T07:39:45;5.10;85.80
33271;DHT22;53180;51.344;6.152;2022-11-14T07:42:13;5.20;85.50
33271;DHT22;53180;51.344;6.152;2022-11-14T07:44:41;5.20;85.50
33271;DHT22;53180;51.344;6.152;2022-11-14T07:47:10;5.30;85.50
33271;DHT22;53180;51.344;6.152;2022-11-14T07:49:38;5.30;85.90
33271;DHT22;53180;51.344;6.152;2022-11-14T07:52:08;5.40;85.50
33271;DHT22;53180;51.344;6.152;2022-11-14T07:54:36;5.40;85.50
33271;DHT22;53180;51.344;6.152;2022-11-14T07:57:04;5.50;85.20
33271;DHT22;53180;51.344;6.152;2022-11-14T07:59:33;5.60;85.10
33271;DHT22;53180;51.344;6.152;2022-11-14T08:02:01;5.70;85.00
33271;DHT22;53180;51.344;6.152;2022-11-14T08:04:29;5.70;84.90
33271;DHT22;53180;51.344;6.152;2022-11-14T08:06:57;5.90;84.90
33271;DHT22;53180;51.344;6.152;2022-11-14T08:09:27;5.90;84.50
33271;DHT22;53180;51.344;6.152;2022-11-14T08:11:56;6.00;84.10
33271;DHT22;53180;51.344;6.152;2022-11-14T08:14:24;6.10;84.30
33271;DHT22;53180;51.344;6.152;2022-11-14T08:16:52;6.20;84.10
33271;DHT22;53180;51.344;6.152;2022-11-14T08:19:21;6.30;83.70
33271;DHT22;53180;51.344;6.152;2022-11-14T08:21:49;6.40;83.80
33271;DHT22;53180;51.344;6.152;2022-11-14T08:24:17;6.40;83.30
33271;DHT22;53180;51.344;6.152;2022-11-14T08:26:47;6.60;83.50
33271;DHT22;53180;51.344;6.152;2022-11-14T08:29:15;6.60;83.60
33271;DHT22;53180;51.344;6.152;2022-11-14T08:31:44;6.70;83.10
33271;DHT22;53180;51.344;6.152;2022-11-14T08:34:13;6.80;83.20
33271;DHT22;53180;51.344;6.152;2022-11-14T08:36:41;6.90;83.10
33271;DHT22;53180;51.344;6.152;2022-11-14T08:39:09;7.00;83.10
33271;DHT22;53180;51.344;6.152;2022-11-14T08:41:38;7.10;83.10
33271;DHT22;53180;51.344;6.152;2022-11-14T08:44:07;7.20;83.30
33271;DHT22;53180;51.344;6.152;2022-11-14T08:46:36;7.20;82.90
33271;DHT22;53180;51.344;6.152;2022-11-14T08:49:04;7.40;83.30
33271;DHT22;53180;51.344;6.152;2022-11-14T08:51:32;7.40;82.70
33271;DHT22;53180;51.344;6.152;2022-11-14T08:54:02;7.50;83.00
33271;DHT22;53180;51.344;6.152;2022-11-14T08:56:31;7.60;83.10
33271;DHT22;53180;51.344;6.152;2022-11-14T08:59:02;7.70;82.70
33271;DHT22;53180;51.344;6.152;2022-11-14T09:01:32;7.90;82.60
33271;DHT22;53180;51.344;6.152;2022-11-14T09:04:00;8.00;82.30
33271;DHT22;53180;51.344;6.152;2022-11-14T09:06:29;8.10;82.00
33271;DHT22;53180;51.344;6.152;2022-11-14T09:08:57;8.10;82.40
33271;DHT22;53180;51.344;6.152;2022-11-14T09:11:25;8.10;82.20
33271;DHT22;53180;51.344;6.152;2022-11-14T09:13:54;8.20;82.20
33271;DHT22;53180;51.344;6.152;2022-11-14T09:16:22;8.20;81.80
33271;DHT22;53180;51.344;6.152;2022-11-14T09:18:52;8.20;81.90
33271;DHT22;53180;51.344;6.152;2022-11-14T09:21:21;8.20;81.90
33271;DHT22;53180;51.344;6.152;2022-11-14T09:23:49;8.20;82.50
33271;DHT22;53180;51.344;6.152;2022-11-14T09:26:17;8.30;81.90
33271;DHT22;53180;51.344;6.152;2022-11-14T09:28:46;8.30;81.60
33271;DHT22;53180;51.344;6.152;2022-11-14T09:31:14;8.20;81.70
33271;DHT22;53180;51.344;6.152;2022-11-14T09:33:42;8.10;82.20
33271;DHT22;53180;51.344;6.152;2022-11-14T09:36:12;8.10;82.40
33271;DHT22;53180;51.344;6.152;2022-11-14T09:38:41;8.00;82.40
33271;DHT22;53180;51.344;6.152;2022-11-14T09:41:21;8.10;82.60
33271;DHT22;53180;51.344;6.152;2022-11-14T09:44:15;8.10;82.60
33271;DHT22;53180;51.344;6.152;2022-11-14T09:46:53;8.10;82.60
33271;DHT22;53180;51.344;6.152;2022-11-14T09:49:30;8.00;82.80
33271;DHT22;53180;51.344;6.152;2022-11-14T09:52:11;8.10;83.10
33271;DHT22;53180;51.344;6.152;2022-11-14T09:54:47;8.10;83.00
33271;DHT22;53180;51.344;6.152;2022-11-14T09:57:19;8.00;83.00
33271;DHT22;53180;51.344;6.152;2022-11-14T09:59:48;7.90;83.40
33271;DHT22;53180;51.344;6.152;2022-11-14T10:02:36;7.90;83.50
33271;DHT22;53180;51.344;6.152;2022-11-14T10:05:23;7.90;83.90
33271;DHT22;53180;51.344;6.152;2022-11-14T10:08:21;7.80;83.70
33271;DHT22;53180;51.344;6.152;2022-11-14T10:10:59;7.80;83.80
33271;DHT22;53180;51.344;6.152;2022-11-14T10:14:00;7.90;83.90
33271;DHT22;53180;51.344;6.152;2022-11-14T10:16:43;7.90;83.60
33271;DHT22;53180;51.344;6.152;2022-11-14T10:19:24;7.90;83.80
33271;DHT22;53180;51.344;6.152;2022-11-14T10:22:08;7.90;83.60
33271;DHT22;53180;51.344;6.152;2022-11-14T10:25:02;7.90;83.50
33271;DHT22;53180;51.344;6.152;2022-11-14T10:27:44;7.90;83.40
33271;DHT22;53180;51.344;6.152;2022-11-14T10:30:31;7.80;83.50
33271;DHT22;53180;51.344;6.152;2022-11-14T10:33:22;7.80;83.50
33271;DHT22;53180;51.344;6.152;2022-11-14T10:35:59;7.80;83.60
33271;DHT22;53180;51.344;6.152;2022-11-14T10:38:35;7.80;83.40
33271;DHT22;53180;51.344;6.152;2022-11-14T10:41:08;7.80;83.40
33271;DHT22;53180;51.344;6.152;2022-11-14T10:43:57;7.70;83.40
33271;DHT22;53180;51.344;6.152;2022-11-14T10:46:29;7.80;83.80
33271;DHT22;53180;51.344;6.152;2022-11-14T10:49:01;7.70;83.50
33271;DHT22;53180;51.344;6.152;2022-11-14T10:51:34;7.80;83.70
33271;DHT22;53180;51.344;6.152;2022-11-14T10:54:10;7.80;83.60
33271;DHT22;53180;51.344;6.152;2022-11-14T10:56:49;7.80;83.50
33271;DHT22;53180;51.344;6.152;2022-11-14T10:59:19;7.80;83.30
33271;DHT22;53180;51.344;6.152;2022-11-14T11:01:53;7.80;83.50
33271;DHT22;53180;51.344;6.152;2022-11-14T11:04:25;7.80;83.60
33271;DHT22;53180;51.344;6.152;2022-11-14T11:06:56;7.80;83.20
33271;DHT22;53180;51.344;6.152;2022-11-14T11:09:26;7.80;83.50
33271;DHT22;53180;51.344;6.152;2022-11-14T11:12:17;7.90;83.40
33271;DHT22;53180;51.344;6.152;2022-11-14T11:14:48;7.90;83.20
33271;DHT22;53180;51.344;6.152;2022-11-14T11:17:34;7.90;83.30
33271;DHT22;53180;51.344;6.152;2022-11-14T11:20:28;7.90;83.70
33271;DHT22;53180;51.344;6.152;2022-11-14T11:23:03;7.90;83.60
33271;DHT22;53180;51.344;6.152;2022-11-14T11:25:33;8.00;83.70
33271;DHT22;53180;51.344;6.152;2022-11-14T11:28:11;8.00;83.60
33271;DHT22;53180;51.344;6.152;2022-11-14T11:30:54;8.00;83.30
33271;DHT22;53180;51.344;6.152;2022-11-14T11:33:25;8.00;83.30
33271;DHT22;53180;51.344;6.152;2022-11-14T11:35:58;8.10;83.20
33271;DHT22;53180;51.344;6.152;2022-11-14T11:38:30;8.10;83.00
33271;DHT22;53180;51.344;6.152;2022-11-14T11:41:15;8.10;82.80
33271;DHT22;53180;51.344;6.152;2022-11-14T11:44:12;8.00;82.40
33271;DHT22;53180;51.344;6.152;2022-11-14T11:46:46;8.10;82.20
33271;DHT22;53180;51.344;6.152;2022-11-14T11:49:33;8.10;82.50
33271;DHT22;53180;51.344;6.152;2022-11-14T11:52:10;8.20;82.30
33271;DHT22;53180;51.344;6.152;2022-11-14T11:54:52;8.20;82.30
33271;DHT22;53180;51.344;6.152;2022-11-14T11:57:31;8.20;82.00
33271;DHT22;53180;51.344;6.152;2022-11-14T12:00:13;8.20;81.80
33271;DHT22;53180;51.344;6.152;2022-11-14T12:02:46;8.30;81.70
33271;DHT22;53180;51.344;6.152;2022-11-14T12:05:20;8.30;81.70
33271;DHT22;53180;51.344;6.152;2022-11-14T12:07:59;8.30;81.60
33271;DHT22;53180;51.344;6.152;2022-11-14T12:10:32;8.30;81.70
33271;DHT22;53180;51.344;6.152;2022-11-14T12:13:31;8.30;81.40
33271;DHT22;53180;51.344;6.152;2022-11-14T12:16:26;8.40;81.60
33271;DHT22;53180;51.344;6.152;2022-11-14T12:22:13;8.50;81.50
33271;DHT22;53180;51.344;6.152;2022-11-14T12:28:07;8.60;81.50
33271;DHT22;53180;51.344;6.152;2022-11-14T12:30:45;8.60;81.00
33271;DHT22;53180;51.344;6.152;2022-11-14T12:33:21;8.70;81.30
33271;DHT22;53180;51.344;6.152;2022-11-14T12:35:55;8.70;81.30
33271;DHT22;53180;51.344;6.152;2022-11-14T12:38:29;8.80;81.40
33271;DHT22;53180;51.344;6.152;2022-11-14T12:41:01;8.80;80.70
33271;DHT22;53180;51.344;6.152;2022-11-14T12:43:33;8.80;80.70
33271;DHT22;53180;51.344;6.152;2022-11-14T12:46:05;8.80;80.70
33271;DHT22;53180;51.344;6.152;2022-11-14T12:48:38;8.90;80.70
33271;DHT22;53180;51.344;6.152;2022-11-14T12:54:41;8.90;80.60
33271;DHT22;53180;51.344;6.152;2022-11-14T12:57:17;8.90;80.70
33271;DHT22;53180;51.344;6.152;2022-11-14T13:00:06;8.90;80.80
33271;DHT22;53180;51.344;6.152;2022-11-14T13:03:07;8.90;80.90
33271;DHT22;53180;51.344;6.152;2022-11-14T13:05:54;8.90;81.00
33271;DHT22;53180;51.344;6.152;2022-11-14T13:08:49;8.90;80.70
33271;DHT22;53180;51.344;6.152;2022-11-14T13:11:39;9.00;80.80
33271;DHT22;53180;51.344;6.152;2022-11-14T13:14:27;9.00;81.00
33271;DHT22;53180;51.344;6.152;2022-11-14T13:17:31;9.10;80.80
33271;DHT22;53180;51.344;6.152;2022-11-14T13:20:33;9.20;81.00
33271;DHT22;53180;51.344;6.152;2022-11-14T13:23:56;9.20;80.40
33271;DHT22;53180;51.344;6.152;2022-11-14T13:26:45;9.20;78.80
33271;DHT22;53180;51.344;6.152;2022-11-14T13:35:43;9.10;77.60
33271;DHT22;53180;51.344;6.152;2022-11-14T13:45:32;9.00;77.20
33271;DHT22;53180;51.344;6.152;2022-11-14T13:51:16;9.00;76.90
33271;DHT22;53180;51.344;6.152;2022-11-14T13:54:10;9.00;77.50
33271;DHT22;53180;51.344;6.152;2022-11-14T13:56:53;9.00;77.40
33271;DHT22;53180;51.344;6.152;2022-11-14T13:59:42;9.00;78.00
33271;DHT22;53180;51.344;6.152;2022-11-14T14:05:56;8.90;77.40
33271;DHT22;53180;51.344;6.152;2022-11-14T14:08:55;8.90;77.30
33271;DHT22;53180;51.344;6.152;2022-11-14T14:11:43;8.90;78.00
33271;DHT22;53180;51.344;6.152;2022-11-14T14:14:32;8.90;77.70
33271;DHT22;53180;51.344;6.152;2022-11-14T14:17:10;9.00;77.70
33271;DHT22;53180;51.344;6.152;2022-11-14T14:19:52;9.00;77.80
33271;DHT22;53180;51.344;6.152;2022-11-14T14:22:31;8.90;78.80
33271;DHT22;53180;51.344;6.152;2022-11-14T14:25:12;8.90;78.90
33271;DHT22;53180;51.344;6.152;2022-11-14T14:27:52;8.80;79.30
33271;DHT22;53180;51.344;6.152;2022-11-14T14:30:26;8.80;79.70
33271;DHT22;53180;51.344;6.152;2022-11-14T14:33:02;8.90;79.80
33271;DHT22;53180;51.344;6.152;2022-11-14T14:35:35;8.80;78.70
33271;DHT22;53180;51.344;6.152;2022-11-14T14:38:10;8.90;78.70
33271;DHT22;53180;51.344;6.152;2022-11-14T14:40:40;8.90;78.60
33271;DHT22;53180;51.344;6.152;2022-11-14T14:43:19;8.80;79.50
33271;DHT22;53180;51.344;6.152;2022-11-14T14:45:52;8.90;79.50
33271;DHT22;53180;51.344;6.152;2022-11-14T14:48:23;8.90;79.70
33271;DHT22;53180;51.344;6.152;2022-11-14T14:50:55;8.90;80.00
33271;DHT22;53180;51.344;6.152;2022-11-14T14:53:26;8.90;79.70
33271;DHT22;53180;51.344;6.152;2022-11-14T14:55:56;8.90;79.50
33271;DHT22;53180;51.344;6.152;2022-11-14T14:58:27;8.90;79.80
33271;DHT22;53180;51.344;6.152;2022-11-14T15:00:59;8.90;80.20
33271;DHT22;53180;51.344;6.152;2022-11-14T15:03:31;8.90;80.10
33271;DHT22;53180;51.344;6.152;2022-11-14T15:06:16;8.90;79.90
33271;DHT22;53180;51.344;6.152;2022-11-14T15:08:56;8.90;79.70
33271;DHT22;53180;51.344;6.152;2022-11-14T15:11:25;8.90;79.60
33271;DHT22;53180;51.344;6.152;2022-11-14T15:14:00;8.90;79.50
33271;DHT22;53180;51.344;6.152;2022-11-14T15:16:30;8.90;79.80
33271;DHT22;53180;51.344;6.152;2022-11-14T15:18:59;8.90;80.10
33271;DHT22;53180;51.344;6.152;2022-11-14T15:21:29;8.90;80.60
33271;DHT22;53180;51.344;6.152;2022-11-14T15:24:00;8.90;81.00
33271;DHT22;53180;51.344;6.152;2022-11-14T15:26:30;8.90;81.30
33271;DHT22;53180;51.344;6.152;2022-11-14T15:29:06;8.90;81.70
33271;DHT22;53180;51.344;6.152;2022-11-14T15:31:35;9.00;81.80
33271;DHT22;53180;51.344;6.152;2022-11-14T15:34:06;9.00;82.20
33271;DHT22;53180;51.344;6.152;2022-11-14T15:37:17;9.00;82.30
33271;DHT22;53180;51.344;6.152;2022-11-14T15:39:50;8.90;82.50
33271;DHT22;53180;51.344;6.152;2022-11-14T15:42:25;8.90;82.60
33271;DHT22;53180;51.344;6.152;2022-11-14T15:44:55;8.90;82.80
33271;DHT22;53180;51.344;6.152;2022-11-14T15:47:25;8.90;82.70
33271;DHT22;53180;51.344;6.152;2022-11-14T15:50:00;8.90;82.80
33271;DHT22;53180;51.344;6.152;2022-11-14T15:52:35;8.90;82.80
33271;DHT22;53180;51.344;6.152;2022-11-14T15:55:12;8.90;82.90
33271;DHT22;53180;51.344;6.152;2022-11-14T15:57:42;8.90;82.90
33271;DHT22;53180;51.344;6.152;2022-11-14T16:00:22;8.90;82.90
33271;DHT22;53180;51.344;6.152;2022-11-14T16:02:52;8.90;83.00
33271;DHT22;53180;51.344;6.152;2022-11-14T16:05:25;8.90;83.10
33271;DHT22;53180;51.344;6.152;2022-11-14T16:07:56;8.90;83.40
33271;DHT22;53180;51.344;6.152;2022-11-14T16:10:26;8.90;83.30
33271;DHT22;53180;51.344;6.152;2022-11-14T16:12:55;8.90;83.30
33271;DHT22;53180;51.344;6.152;2022-11-14T16:15:24;8.90;83.20
33271;DHT22;53180;51.344;6.152;2022-11-14T16:17:52;8.90;83.40
33271;DHT22;53180;51.344;6.152;2022-11-14T16:20:22;8.80;83.40
33271;DHT22;53180;51.344;6.152;2022-11-14T16:22:51;8.80;83.40
33271;DHT22;53180;51.344;6.152;2022-11-14T16:25:24;8.80;83.30
33271;DHT22;53180;51.344;6.152;2022-11-14T16:27:53;8.80;83.20
33271;DHT22;53180;51.344;6.152;2022-11-14T16:30:24;8.90;83.40
33271;DHT22;53180;51.344;6.152;2022-11-14T16:32:53;8.80;83.30
33271;DHT22;53180;51.344;6.152;2022-11-14T16:35:22;8.80;83.20
33271;DHT22;53180;51.344;6.152;2022-11-14T16:37:53;8.80;83.40
33271;DHT22;53180;51.344;6.152;2022-11-14T16:40:25;8.80;83.50
33271;DHT22;53180;51.344;6.152;2022-11-14T16:42:55;8.80;83.40
33271;DHT22;53180;51.344;6.152;2022-11-14T16:45:25;8.80;83.50
33271;DHT22;53180;51.344;6.152;2022-11-14T16:47:53;8.80;83.50
33271;DHT22;53180;51.344;6.152;2022-11-14T16:50:22;8.80;83.50